sensor_id;sensor_type;location;lat;lon;timestamp;P1;durP1;ratioP1;P2;durP2;ratioP2
20914;SDS011;10617;52.032;5.298;2022-07-17T11:16:55;1.95;;;1.00;;
20914;SDS011;10617;52.032;5.298;2022-07-17T11:20:59;2.17;;;0.90;;
20914;SDS011;10617;52.032;5.298;2022-07-17T11:25:03;2.17;;;0.85;;
20914;SDS011;10617;52.032;5.298;2022-07-17T11:29:06;3.05;;;1.00;;
20914;SDS011;10617;52.032;5.298;2022-07-17T11:33:14;2.78;;;1.20;;
20914;SDS011;10617;52.032;5.298;2022-07-17T11:37:16;3.25;;;1.02;;
20914;SDS011;10617;52.032;5.298;2022-07-17T11:41:18;2.55;;;1.00;;
20914;SDS011;10617;52.032;5.298;2022-07-17T11:45:21;1.90;;;1.00;;
20914;SDS011;10617;52.032;5.298;2022-07-17T11:57:41;2.40;;;0.90;;
20914;SDS011;10617;52.032;5.298;2022-07-17T12:01:47;4.03;;;1.05;;
20914;SDS011;10617;52.032;5.298;2022-07-17T12:09:51;2.83;;;1.10;;
20914;SDS011;10617;52.032;5.298;2022-07-17T12:58:26;2.65;;;1.00;;
20914;SDS011;10617;52.032;5.298;2022-07-17T13:02:27;3.22;;;1.50;;
20914;SDS011;10617;52.032;5.298;2022-07-17T13:06:49;2.55;;;1.10;;
20914;SDS011;10617;52.032;5.298;2022-07-17T13:10:51;3.00;;;1.23;;
20914;SDS011;10617;52.032;5.298;2022-07-17T13:14:52;2.65;;;1.13;;
20914;SDS011;10617;52.032;5.298;2022-07-17T13:18:54;3.45;;;1.73;;
20914;SDS011;10617;52.032;5.298;2022-07-17T13:22:57;3.47;;;1.58;;
20914;SDS011;10617;52.032;5.298;2022-07-17T13:26:59;3.75;;;1.35;;
20914;SDS011;10617;52.032;5.298;2022-07-17T13:31:01;2.78;;;1.20;;
20914;SDS011;10617;52.032;5.298;2022-07-17T13:35:04;4.43;;;1.75;;
20914;SDS011;10617;52.032;5.298;2022-07-17T13:39:07;4.28;;;1.40;;
20914;SDS011;10617;52.032;5.298;2022-07-17T13:43:09;3.15;;;1.38;;
20914;SDS011;10617;52.032;5.298;2022-07-17T13:47:10;3.65;;;1.40;;
20914;SDS011;10617;52.032;5.298;2022-07-17T20:18:54;4.57;;;2.22;;
20914;SDS011;10617;52.032;5.298;2022-07-17T20:22:56;5.35;;;2.13;;
20914;SDS011;10617;52.032;5.298;2022-07-17T20:26:59;4.03;;;2.10;;
20914;SDS011;10617;52.032;5.298;2022-07-17T20:31:01;5.88;;;2.13;;
20914;SDS011;10617;52.032;5.298;2022-07-17T20:35:03;4.47;;;2.03;;
20914;SDS011;10617;52.032;5.298;2022-07-17T20:39:05;4.82;;;2.40;;
20914;SDS011;10617;52.032;5.298;2022-07-17T20:43:07;4.35;;;2.05;;
20914;SDS011;10617;52.032;5.298;2022-07-17T20:47:10;5.07;;;2.15;;
20914;SDS011;10617;52.032;5.298;2022-07-17T20:51:12;4.35;;;2.15;;
20914;SDS011;10617;52.032;5.298;2022-07-17T20:55:14;4.35;;;2.25;;
20914;SDS011;10617;52.032;5.298;2022-07-17T20:59:15;4.53;;;2.35;;
20914;SDS011;10617;52.032;5.298;2022-07-17T21:03:17;5.43;;;2.10;;
20914;SDS011;10617;52.032;5.298;2022-07-17T21:07:19;5.70;;;2.45;;
20914;SDS011;10617;52.032;5.298;2022-07-17T21:11:21;5.55;;;2.28;;
20914;SDS011;10617;52.032;5.298;2022-07-17T21:15:23;4.32;;;2.03;;
20914;SDS011;10617;52.032;5.298;2022-07-17T21:19:25;5.82;;;1.90;;
20914;SDS011;10617;52.032;5.298;2022-07-17T21:23:26;5.65;;;2.55;;
20914;SDS011;10617;52.032;5.298;2022-07-17T21:27:28;4.32;;;1.88;;
20914;SDS011;10617;52.032;5.298;2022-07-17T21:31:30;4.40;;;2.03;;
20914;SDS011;10617;52.032;5.298;2022-07-17T21:35:32;5.13;;;2.10;;
20914;SDS011;10617;52.032;5.298;2022-07-17T21:39:33;4.40;;;2.10;;
